Rachel Carson — WDF9370 — position and weather

sailwx.info

Track history (hours):
 
Tides and Currents Weather Stations Pressure Air Temp Water Temp Dewpoint Dewpoint Depression Visibility Wind Speed Wind Dir Waves Ship Positions

Oceanographic research ship Rachel Carson (USA)

Owner: Monterey Bay Aquarium Research Institute, Moss Landing, CA. More information available from US FCC via Universal Licensing System and Coast Guard Vessel Documentation Center.

Last reported at 2017-Oct-05 19:04 UTC. Time now 2017-Nov-18 00:48 UTC.
Position N 37°47' W 122°17'.
Warning: this ship's position is 43 days out of date.

Length 42 m; draft 3 m.

Type: Dredging. MMSI: 338415000.

Date/timePositionNaut miles runAvg speedWind from/ knotsBaromVisibWave heightAir tempDewpointWater temp
2017-Oct-05 19:04N 37°47' W 122°17'0 0.0
2017-Oct-05 19:01N 37°47' W 122°17'1 2.7
2017-Oct-05 18:31N 37°48' W 122°19'1 2.7
2017-Oct-05 18:01N 37°47' W 122°17'0 0.0
2017-Oct-05 17:31N 37°47' W 122°17'  
2017-Oct-02 23:56N 37°47' W 122°17'1 3.3
2017-Oct-02 23:30N 37°48' W 122°19'510.1
2017-Oct-02 23:01N 37°49' W 122°25'4 8.8
2017-Oct-02 22:30N 37°48' W 122°31'4 8.2
2017-Oct-02 22:00N 37°45' W 122°34'5 9.2
2017-Oct-02 21:30N 37°41' W 122°35'5 9.7
2017-Oct-02 21:00N 37°36' W 122°35'5 9.6
2017-Oct-02 20:30N 37°31' W 122°35'5 9.9
2017-Oct-02 20:00N 37°26' W 122°34'5 9.7
2017-Oct-02 19:31N 37°21' W 122°32'5 9.6
2017-Oct-02 19:00N 37°17' W 122°30'5 9.3
2017-Oct-02 18:31N 37°13' W 122°28'5 9.5
2017-Oct-02 18:00N 37°09' W 122°24'  
Track history (hours):
 
Tides and Currents Weather Stations Pressure Air Temp Water Temp Dewpoint Dewpoint Depression Visibility Wind Speed Wind Dir Waves Ship Positions

Oceanographic research ship Rachel Carson (USA)

Owner: Monterey Bay Aquarium Research Institute, Moss Landing, CA. More information available from US FCC via Universal Licensing System and Coast Guard Vessel Documentation Center.

Last reported at 2017-Oct-05 19:04 UTC. Time now 2017-Nov-18 00:48 UTC.
Position N 37°47' W 122°17'.
Warning: this ship's position is 43 days out of date.

Length 42 m; draft 3 m.

Type: Dredging. MMSI: 338415000.

Date/timePositionNaut miles runAvg speedWind from/ knotsBaromVisibWave heightAir tempDewpointWater temp
2017-Oct-05 19:04N 37°47' W 122°17'0 0.0
2017-Oct-05 19:01N 37°47' W 122°17'1 2.7
2017-Oct-05 18:31N 37°48' W 122°19'1 2.7
2017-Oct-05 18:01N 37°47' W 122°17'0 0.0
2017-Oct-05 17:31N 37°47' W 122°17'  
2017-Oct-02 23:56N 37°47' W 122°17'1 3.3
2017-Oct-02 23:30N 37°48' W 122°19'510.1
2017-Oct-02 23:01N 37°49' W 122°25'4 8.8
2017-Oct-02 22:30N 37°48' W 122°31'4 8.2
2017-Oct-02 22:00N 37°45' W 122°34'5 9.2
2017-Oct-02 21:30N 37°41' W 122°35'5 9.7
2017-Oct-02 21:00N 37°36' W 122°35'5 9.6
2017-Oct-02 20:30N 37°31' W 122°35'5 9.9
2017-Oct-02 20:00N 37°26' W 122°34'5 9.7
2017-Oct-02 19:31N 37°21' W 122°32'5 9.6
2017-Oct-02 19:00N 37°17' W 122°30'5 9.3
2017-Oct-02 18:31N 37°13' W 122°28'5 9.5
2017-Oct-02 18:00N 37°09' W 122°24'  

Dump ship's entire track history